sensor_id;sensor_type;location;lat;lon;timestamp;pressure;altitude;pressure_sealevel;temperature;humidity
79663;BME280;69130;48.724;8.982;2023-05-10T00:00:50;95909.47;;;12.26;97.57
79663;BME280;69130;48.724;8.982;2023-05-10T00:03:16;95915.66;;;12.16;97.01
79663;BME280;69130;48.724;8.982;2023-05-10T00:05:42;95911.84;;;12.09;96.92
79663;BME280;69130;48.724;8.982;2023-05-10T00:08:07;95909.06;;;12.10;97.16
79663;BME280;69130;48.724;8.982;2023-05-10T00:10:33;95905.69;;;12.08;97.78
79663;BME280;69130;48.724;8.982;2023-05-10T00:12:58;95907.19;;;12.01;97.43
79663;BME280;69130;48.724;8.982;2023-05-10T00:15:23;95909.72;;;11.92;98.04
79663;BME280;69130;48.724;8.982;2023-05-10T00:17:49;95912.63;;;11.89;97.72
79663;BME280;69130;48.724;8.982;2023-05-10T00:20:14;95912.06;;;11.85;98.06
79663;BME280;69130;48.724;8.982;2023-05-10T00:22:39;95909.78;;;11.81;97.57
79663;BME280;69130;48.724;8.982;2023-05-10T00:25:06;95912.41;;;11.81;97.39
79663;BME280;69130;48.724;8.982;2023-05-10T00:27:31;95911.97;;;11.76;98.30
79663;BME280;69130;48.724;8.982;2023-05-10T00:29:56;95909.41;;;11.74;98.03
79663;BME280;69130;48.724;8.982;2023-05-10T00:32:22;95908.69;;;11.72;97.87
79663;BME280;69130;48.724;8.982;2023-05-10T00:34:47;95922.22;;;11.69;98.65
79663;BME280;69130;48.724;8.982;2023-05-10T00:37:13;95912.78;;;11.65;98.13
79663;BME280;69130;48.724;8.982;2023-05-10T00:39:38;95914.72;;;11.63;98.75
79663;BME280;69130;48.724;8.982;2023-05-10T00:42:03;95904.97;;;11.64;98.08
79663;BME280;69130;48.724;8.982;2023-05-10T00:44:29;95915.09;;;11.59;98.12
79663;BME280;69130;48.724;8.982;2023-05-10T00:46:56;95920.38;;;11.59;98.71
79663;BME280;69130;48.724;8.982;2023-05-10T00:49:22;95914.38;;;11.57;99.11
79663;BME280;69130;48.724;8.982;2023-05-10T00:51:48;95925.47;;;11.62;98.37
79663;BME280;69130;48.724;8.982;2023-05-10T00:54:14;95927.97;;;11.63;98.38
79663;BME280;69130;48.724;8.982;2023-05-10T00:56:40;95932.81;;;11.58;98.53
79663;BME280;69130;48.724;8.982;2023-05-10T00:59:07;95932.56;;;11.61;98.60
79663;BME280;69130;48.724;8.982;2023-05-10T01:01:33;95932.91;;;11.57;98.70
79663;BME280;69130;48.724;8.982;2023-05-10T01:03:58;95934.97;;;11.53;99.32
79663;BME280;69130;48.724;8.982;2023-05-10T01:06:24;95929.69;;;11.53;98.46
79663;BME280;69130;48.724;8.982;2023-05-10T01:08:50;95935.13;;;11.52;99.01
79663;BME280;69130;48.724;8.982;2023-05-10T01:11:15;95934.63;;;11.58;98.72
79663;BME280;69130;48.724;8.982;2023-05-10T01:13:42;95934.25;;;11.51;98.47
79663;BME280;69130;48.724;8.982;2023-05-10T01:16:08;95928.00;;;11.52;98.84
79663;BME280;69130;48.724;8.982;2023-05-10T01:18:39;95935.13;;;11.52;98.85
79663;BME280;69130;48.724;8.982;2023-05-10T01:24:08;95940.53;;;11.50;98.30
79663;BME280;69130;48.724;8.982;2023-05-10T01:26:39;95946.31;;;11.44;98.76
79663;BME280;69130;48.724;8.982;2023-05-10T01:29:14;95929.81;;;11.40;98.81
79663;BME280;69130;48.724;8.982;2023-05-10T01:34:35;95946.44;;;11.42;98.79
79663;BME280;69130;48.724;8.982;2023-05-10T01:37:13;95939.09;;;11.35;97.96
79663;BME280;69130;48.724;8.982;2023-05-10T01:39:46;95945.50;;;11.32;99.45
79663;BME280;69130;48.724;8.982;2023-05-10T01:42:17;95950.06;;;11.30;99.44
79663;BME280;69130;48.724;8.982;2023-05-10T01:45:02;95949.94;;;11.32;98.77
79663;BME280;69130;48.724;8.982;2023-05-10T01:47:38;95955.72;;;11.26;99.57
79663;BME280;69130;48.724;8.982;2023-05-10T01:50:22;95953.22;;;11.24;99.75
79663;BME280;69130;48.724;8.982;2023-05-10T01:52:57;95960.78;;;11.18;99.11
79663;BME280;69130;48.724;8.982;2023-05-10T01:55:28;95962.72;;;11.16;99.99
79663;BME280;69130;48.724;8.982;2023-05-10T01:58:04;95956.44;;;11.17;99.42
79663;BME280;69130;48.724;8.982;2023-05-10T02:00:31;95962.44;;;11.19;100.00
79663;BME280;69130;48.724;8.982;2023-05-10T02:02:57;95959.22;;;11.15;100.00
79663;BME280;69130;48.724;8.982;2023-05-10T02:05:24;95970.88;;;11.13;99.62
79663;BME280;69130;48.724;8.982;2023-05-10T02:07:52;95966.44;;;11.13;99.94
79663;BME280;69130;48.724;8.982;2023-05-10T02:10:18;95969.19;;;11.12;99.58
79663;BME280;69130;48.724;8.982;2023-05-10T02:12:47;95965.84;;;11.10;99.49
79663;BME280;69130;48.724;8.982;2023-05-10T02:15:18;95972.06;;;11.09;99.86
79663;BME280;69130;48.724;8.982;2023-05-10T02:17:46;95962.34;;;11.09;99.76
79663;BME280;69130;48.724;8.982;2023-05-10T02:20:13;95975.81;;;11.17;100.00
79663;BME280;69130;48.724;8.982;2023-05-10T02:22:41;95977.25;;;11.21;99.86
79663;BME280;69130;48.724;8.982;2023-05-10T02:25:08;95972.94;;;11.20;99.63
79663;BME280;69130;48.724;8.982;2023-05-10T02:27:34;95976.41;;;11.10;100.00
79663;BME280;69130;48.724;8.982;2023-05-10T02:30:02;95984.63;;;11.07;100.00
79663;BME280;69130;48.724;8.982;2023-05-10T02:32:28;95992.06;;;11.13;100.00
79663;BME280;69130;48.724;8.982;2023-05-10T02:34:55;95987.00;;;11.10;100.00
79663;BME280;69130;48.724;8.982;2023-05-10T02:37:21;95986.03;;;11.11;100.00
79663;BME280;69130;48.724;8.982;2023-05-10T02:39:52;95997.94;;;11.05;100.00
79663;BME280;69130;48.724;8.982;2023-05-10T02:42:21;95998.94;;;11.04;100.00
79663;BME280;69130;48.724;8.982;2023-05-10T02:44:48;95992.56;;;11.07;99.96
79663;BME280;69130;48.724;8.982;2023-05-10T02:47:15;95991.47;;;11.09;99.76
79663;BME280;69130;48.724;8.982;2023-05-10T02:49:41;95993.50;;;11.06;99.81
79663;BME280;69130;48.724;8.982;2023-05-10T02:52:07;95994.22;;;11.08;99.90
79663;BME280;69130;48.724;8.982;2023-05-10T02:54:39;95990.25;;;11.13;99.73
79663;BME280;69130;48.724;8.982;2023-05-10T02:57:07;95992.44;;;11.19;100.00
79663;BME280;69130;48.724;8.982;2023-05-10T02:59:34;95990.25;;;11.13;99.55
79663;BME280;69130;48.724;8.982;2023-05-10T03:02:00;95995.69;;;11.12;99.26
79663;BME280;69130;48.724;8.982;2023-05-10T03:04:25;95992.56;;;11.18;99.47
79663;BME280;69130;48.724;8.982;2023-05-10T03:06:51;95997.59;;;11.21;99.51
79663;BME280;69130;48.724;8.982;2023-05-10T03:09:17;96002.44;;;11.16;100.00
79663;BME280;69130;48.724;8.982;2023-05-10T03:11:52;95993.88;;;11.12;99.63
79663;BME280;69130;48.724;8.982;2023-05-10T03:17:11;95997.59;;;11.10;99.16
79663;BME280;69130;48.724;8.982;2023-05-10T03:20:04;95996.53;;;11.12;99.86
79663;BME280;69130;48.724;8.982;2023-05-10T03:22:44;96003.28;;;11.16;99.37
79663;BME280;69130;48.724;8.982;2023-05-10T03:25:11;96003.88;;;11.20;99.29
79663;BME280;69130;48.724;8.982;2023-05-10T03:27:40;96005.53;;;11.21;99.90
79663;BME280;69130;48.724;8.982;2023-05-10T03:30:08;96006.03;;;11.26;99.00
79663;BME280;69130;48.724;8.982;2023-05-10T03:32:35;96001.47;;;11.28;98.98
79663;BME280;69130;48.724;8.982;2023-05-10T03:35:06;96009.63;;;11.25;99.22
79663;BME280;69130;48.724;8.982;2023-05-10T03:37:31;96009.03;;;11.21;99.25
79663;BME280;69130;48.724;8.982;2023-05-10T03:39:57;96003.63;;;11.23;99.11
79663;BME280;69130;48.724;8.982;2023-05-10T03:42:22;96013.50;;;11.21;99.32
79663;BME280;69130;48.724;8.982;2023-05-10T03:44:47;96016.38;;;11.18;98.72
79663;BME280;69130;48.724;8.982;2023-05-10T03:47:14;96016.38;;;11.18;99.83
79663;BME280;69130;48.724;8.982;2023-05-10T03:49:39;96030.72;;;11.26;98.64
79663;BME280;69130;48.724;8.982;2023-05-10T03:52:05;96019.50;;;11.23;99.30
79663;BME280;69130;48.724;8.982;2023-05-10T03:54:31;96019.75;;;11.20;98.45
79663;BME280;69130;48.724;8.982;2023-05-10T03:56:57;96019.38;;;11.13;98.69
79663;BME280;69130;48.724;8.982;2023-05-10T03:59:22;96016.00;;;11.00;99.82
79663;BME280;69130;48.724;8.982;2023-05-10T04:01:48;96016.25;;;11.08;99.50
79663;BME280;69130;48.724;8.982;2023-05-10T04:04:13;96018.78;;;11.10;99.68
79663;BME280;69130;48.724;8.982;2023-05-10T04:06:38;96017.72;;;11.12;100.00
79663;BME280;69130;48.724;8.982;2023-05-10T04:09:04;96020.38;;;11.12;98.90
79663;BME280;69130;48.724;8.982;2023-05-10T04:11:29;96008.53;;;11.05;100.00
79663;BME280;69130;48.724;8.982;2023-05-10T04:13:54;96015.41;;;11.08;99.35
79663;BME280;69130;48.724;8.982;2023-05-10T04:16:20;96022.88;;;11.03;100.00
79663;BME280;69130;48.724;8.982;2023-05-10T04:18:45;96024.94;;;11.10;100.00
79663;BME280;69130;48.724;8.982;2023-05-10T04:21:12;96024.09;;;11.10;100.00
79663;BME280;69130;48.724;8.982;2023-05-10T04:23:38;96026.25;;;11.16;99.87
79663;BME280;69130;48.724;8.982;2023-05-10T04:26:03;96024.56;;;11.15;99.45
79663;BME280;69130;48.724;8.982;2023-05-10T04:28:29;96032.63;;;11.13;99.65
79663;BME280;69130;48.724;8.982;2023-05-10T04:31:01;96035.16;;;11.15;99.89
79663;BME280;69130;48.724;8.982;2023-05-10T04:33:26;96042.16;;;11.16;99.82
79663;BME280;69130;48.724;8.982;2023-05-10T04:35:51;96036.13;;;11.14;99.59
79663;BME280;69130;48.724;8.982;2023-05-10T04:38:17;96034.31;;;11.25;99.93
79663;BME280;69130;48.724;8.982;2023-05-10T04:40:42;96028.91;;;11.27;99.65
79663;BME280;69130;48.724;8.982;2023-05-10T04:43:07;96026.88;;;11.30;99.58
79663;BME280;69130;48.724;8.982;2023-05-10T04:45:33;96034.72;;;11.32;99.34
79663;BME280;69130;48.724;8.982;2023-05-10T04:47:58;96040.59;;;11.35;99.58
79663;BME280;69130;48.724;8.982;2023-05-10T04:50:24;96037.81;;;11.37;99.63
79663;BME280;69130;48.724;8.982;2023-05-10T04:52:49;96035.91;;;11.39;99.29
79663;BME280;69130;48.724;8.982;2023-05-10T04:55:14;96035.56;;;11.43;99.45
79663;BME280;69130;48.724;8.982;2023-05-10T04:57:40;96043.88;;;11.50;99.18
79663;BME280;69130;48.724;8.982;2023-05-10T05:00:05;96039.66;;;11.48;98.59
79663;BME280;69130;48.724;8.982;2023-05-10T05:02:31;96039.53;;;11.49;98.17
79663;BME280;69130;48.724;8.982;2023-05-10T05:04:56;96039.03;;;11.55;98.81
79663;BME280;69130;48.724;8.982;2023-05-10T05:07:23;96035.53;;;11.55;98.30
79663;BME280;69130;48.724;8.982;2023-05-10T05:09:48;96047.00;;;11.66;98.97
79663;BME280;69130;48.724;8.982;2023-05-10T05:12:13;96041.81;;;11.65;98.14
79663;BME280;69130;48.724;8.982;2023-05-10T05:14:40;96047.97;;;11.76;98.47
79663;BME280;69130;48.724;8.982;2023-05-10T05:17:06;96051.97;;;11.82;97.50
79663;BME280;69130;48.724;8.982;2023-05-10T05:19:31;96049.66;;;11.77;96.99
79663;BME280;69130;48.724;8.982;2023-05-10T05:21:57;96053.66;;;11.72;97.08
79663;BME280;69130;48.724;8.982;2023-05-10T05:24:22;96058.56;;;11.76;96.77
79663;BME280;69130;48.724;8.982;2023-05-10T05:26:48;96056.19;;;11.73;96.49
79663;BME280;69130;48.724;8.982;2023-05-10T05:29:13;96060.41;;;11.76;97.49
79663;BME280;69130;48.724;8.982;2023-05-10T05:31:39;96067.16;;;11.80;97.48
79663;BME280;69130;48.724;8.982;2023-05-10T05:34:04;96065.44;;;11.90;95.73
79663;BME280;69130;48.724;8.982;2023-05-10T05:36:29;96064.47;;;11.91;96.53
79663;BME280;69130;48.724;8.982;2023-05-10T05:38:56;96069.16;;;11.98;96.02
79663;BME280;69130;48.724;8.982;2023-05-10T05:41:22;96060.97;;;12.01;95.89
79663;BME280;69130;48.724;8.982;2023-05-10T05:43:48;96067.34;;;11.88;95.44
79663;BME280;69130;48.724;8.982;2023-05-10T05:46:14;96068.69;;;11.93;95.99
79663;BME280;69130;48.724;8.982;2023-05-10T05:48:39;96063.97;;;12.08;95.65
79663;BME280;69130;48.724;8.982;2023-05-10T05:51:05;96070.47;;;12.15;96.49
79663;BME280;69130;48.724;8.982;2023-05-10T05:53:30;96064.34;;;12.03;96.50
79663;BME280;69130;48.724;8.982;2023-05-10T05:55:57;96070.81;;;12.21;95.89
79663;BME280;69130;48.724;8.982;2023-05-10T05:58:24;96077.53;;;12.37;95.84
79663;BME280;69130;48.724;8.982;2023-05-10T06:00:50;96078.25;;;12.27;95.32
79663;BME280;69130;48.724;8.982;2023-05-10T06:03:15;96081.28;;;12.34;95.79
79663;BME280;69130;48.724;8.982;2023-05-10T06:05:41;96085.50;;;12.25;95.23
79663;BME280;69130;48.724;8.982;2023-05-10T06:08:06;96087.44;;;12.23;95.50
79663;BME280;69130;48.724;8.982;2023-05-10T06:10:31;96096.25;;;12.24;95.60
79663;BME280;69130;48.724;8.982;2023-05-10T06:12:57;96094.09;;;12.18;95.75
79663;BME280;69130;48.724;8.982;2023-05-10T06:15:22;96097.59;;;12.18;96.26
79663;BME280;69130;48.724;8.982;2023-05-10T06:17:47;96099.97;;;12.21;96.46
79663;BME280;69130;48.724;8.982;2023-05-10T06:20:14;96099.25;;;12.31;96.28
79663;BME280;69130;48.724;8.982;2023-05-10T06:22:40;96108.66;;;12.35;96.43
79663;BME280;69130;48.724;8.982;2023-05-10T06:25:06;96103.81;;;12.40;95.92
79663;BME280;69130;48.724;8.982;2023-05-10T06:27:31;96109.69;;;12.43;95.29
79663;BME280;69130;48.724;8.982;2023-05-10T06:29:57;96106.59;;;12.38;95.03
79663;BME280;69130;48.724;8.982;2023-05-10T06:32:22;96110.91;;;12.39;95.30
79663;BME280;69130;48.724;8.982;2023-05-10T06:34:47;96118.28;;;12.36;96.06
79663;BME280;69130;48.724;8.982;2023-05-10T06:37:13;96118.41;;;12.34;95.45
79663;BME280;69130;48.724;8.982;2023-05-10T06:39:38;96120.00;;;12.37;95.82
79663;BME280;69130;48.724;8.982;2023-05-10T06:42:03;96113.84;;;12.36;94.76
79663;BME280;69130;48.724;8.982;2023-05-10T06:44:29;96118.88;;;12.39;95.54
79663;BME280;69130;48.724;8.982;2023-05-10T06:46:55;96118.31;;;12.67;94.88
79663;BME280;69130;48.724;8.982;2023-05-10T06:49:21;96116.38;;;12.69;94.09
79663;BME280;69130;48.724;8.982;2023-05-10T06:51:46;96114.31;;;12.73;93.78
79663;BME280;69130;48.724;8.982;2023-05-10T06:54:11;96114.81;;;12.78;93.03
79663;BME280;69130;48.724;8.982;2023-05-10T06:56:37;96112.16;;;12.98;92.52
79663;BME280;69130;48.724;8.982;2023-05-10T06:59:02;96107.81;;;13.08;92.05
79663;BME280;69130;48.724;8.982;2023-05-10T07:01:28;96102.66;;;13.28;92.44
79663;BME280;69130;48.724;8.982;2023-05-10T07:03:53;96101.53;;;13.30;93.29
79663;BME280;69130;48.724;8.982;2023-05-10T07:06:18;96103.00;;;13.44;92.14
79663;BME280;69130;48.724;8.982;2023-05-10T07:08:44;96103.81;;;13.55;91.39
79663;BME280;69130;48.724;8.982;2023-05-10T07:11:09;96106.06;;;13.60;90.74
79663;BME280;69130;48.724;8.982;2023-05-10T07:13:38;96102.53;;;13.80;91.35
79663;BME280;69130;48.724;8.982;2023-05-10T07:16:06;96101.31;;;13.93;90.49
79663;BME280;69130;48.724;8.982;2023-05-10T07:18:33;96105.25;;;13.99;88.42
79663;BME280;69130;48.724;8.982;2023-05-10T07:20:58;96109.41;;;13.82;87.91
79663;BME280;69130;48.724;8.982;2023-05-10T07:23:24;96115.19;;;13.97;88.62
79663;BME280;69130;48.724;8.982;2023-05-10T07:25:50;96109.94;;;14.07;88.01
79663;BME280;69130;48.724;8.982;2023-05-10T07:28:17;96115.38;;;14.05;86.41
79663;BME280;69130;48.724;8.982;2023-05-10T07:30:43;96116.53;;;13.82;87.28
79663;BME280;69130;48.724;8.982;2023-05-10T07:33:10;96113.63;;;13.85;88.43
79663;BME280;69130;48.724;8.982;2023-05-10T07:35:36;96111.72;;;13.96;85.91
79663;BME280;69130;48.724;8.982;2023-05-10T07:38:01;96122.03;;;13.90;85.29
79663;BME280;69130;48.724;8.982;2023-05-10T07:40:27;96116.91;;;13.98;87.88
79663;BME280;69130;48.724;8.982;2023-05-10T07:42:53;96120.44;;;14.08;84.94
79663;BME280;69130;48.724;8.982;2023-05-10T07:45:19;96117.78;;;14.08;84.34
79663;BME280;69130;48.724;8.982;2023-05-10T07:47:44;96118.78;;;14.17;85.79
79663;BME280;69130;48.724;8.982;2023-05-10T07:50:10;96124.97;;;14.27;84.89
79663;BME280;69130;48.724;8.982;2023-05-10T07:52:35;96124.69;;;14.20;84.90
79663;BME280;69130;48.724;8.982;2023-05-10T07:55:01;96125.25;;;14.24;85.18
79663;BME280;69130;48.724;8.982;2023-05-10T07:57:26;96127.47;;;14.49;83.66
79663;BME280;69130;48.724;8.982;2023-05-10T07:59:51;96130.81;;;14.51;85.41
79663;BME280;69130;48.724;8.982;2023-05-10T08:02:17;96127.91;;;14.54;83.25
79663;BME280;69130;48.724;8.982;2023-05-10T08:04:42;96129.56;;;14.55;82.82
79663;BME280;69130;48.724;8.982;2023-05-10T08:07:07;96131.31;;;14.75;82.83
79663;BME280;69130;48.724;8.982;2023-05-10T08:09:33;96127.50;;;14.68;81.66
79663;BME280;69130;48.724;8.982;2023-05-10T08:11:58;96129.03;;;14.70;83.49
79663;BME280;69130;48.724;8.982;2023-05-10T08:14:25;96141.72;;;14.97;82.76
79663;BME280;69130;48.724;8.982;2023-05-10T08:16:51;96138.44;;;14.84;79.67
79663;BME280;69130;48.724;8.982;2023-05-10T08:19:16;96137.03;;;14.61;82.74
79663;BME280;69130;48.724;8.982;2023-05-10T08:21:45;96140.69;;;14.60;81.29
79663;BME280;69130;48.724;8.982;2023-05-10T08:24:10;96136.78;;;14.93;81.45
79663;BME280;69130;48.724;8.982;2023-05-10T08:26:35;96144.06;;;14.91;79.51
79663;BME280;69130;48.724;8.982;2023-05-10T08:29:01;96143.66;;;14.95;79.22
79663;BME280;69130;48.724;8.982;2023-05-10T08:31:26;96142.97;;;15.03;80.40
79663;BME280;69130;48.724;8.982;2023-05-10T08:33:52;96142.28;;;15.10;80.43
79663;BME280;69130;48.724;8.982;2023-05-10T08:36:18;96149.16;;;15.22;79.57
79663;BME280;69130;48.724;8.982;2023-05-10T08:38:55;96150.81;;;15.23;75.76
79663;BME280;69130;48.724;8.982;2023-05-10T08:41:21;96145.91;;;15.38;75.30
79663;BME280;69130;48.724;8.982;2023-05-10T08:43:50;96156.84;;;15.25;75.91
79663;BME280;69130;48.724;8.982;2023-05-10T08:46:17;96147.88;;;15.26;76.30
79663;BME280;69130;48.724;8.982;2023-05-10T08:48:44;96147.91;;;15.07;76.17
79663;BME280;69130;48.724;8.982;2023-05-10T08:51:13;96163.72;;;15.28;76.31
79663;BME280;69130;48.724;8.982;2023-05-10T08:53:38;96156.31;;;15.41;77.31
79663;BME280;69130;48.724;8.982;2023-05-10T08:56:04;96163.91;;;15.45;75.53
79663;BME280;69130;48.724;8.982;2023-05-10T08:58:30;96166.00;;;15.61;77.47
79663;BME280;69130;48.724;8.982;2023-05-10T09:00:56;96165.44;;;15.57;74.33
79663;BME280;69130;48.724;8.982;2023-05-10T09:03:22;96163.72;;;15.37;77.78
79663;BME280;69130;48.724;8.982;2023-05-10T09:05:48;96177.22;;;15.36;77.39
79663;BME280;69130;48.724;8.982;2023-05-10T09:08:15;96173.03;;;15.43;76.04
79663;BME280;69130;48.724;8.982;2023-05-10T09:10:44;96176.50;;;15.53;74.20
79663;BME280;69130;48.724;8.982;2023-05-10T09:13:13;96180.16;;;16.27;72.60
79663;BME280;69130;48.724;8.982;2023-05-10T09:15:40;96176.19;;;15.85;73.05
79663;BME280;69130;48.724;8.982;2023-05-10T09:18:05;96172.00;;;15.82;72.82
79663;BME280;69130;48.724;8.982;2023-05-10T09:20:30;96174.25;;;15.77;73.63
79663;BME280;69130;48.724;8.982;2023-05-10T09:22:56;96176.75;;;15.98;72.74
79663;BME280;69130;48.724;8.982;2023-05-10T09:25:21;96179.78;;;16.22;71.99
79663;BME280;69130;48.724;8.982;2023-05-10T09:27:48;96182.84;;;16.64;69.77
79663;BME280;69130;48.724;8.982;2023-05-10T09:30:27;96180.59;;;16.69;69.07
79663;BME280;69130;48.724;8.982;2023-05-10T09:32:53;96177.91;;;17.13;67.56
79663;BME280;69130;48.724;8.982;2023-05-10T09:35:22;96182.28;;;17.32;63.51
79663;BME280;69130;48.724;8.982;2023-05-10T09:37:53;96187.19;;;16.92;67.21
79663;BME280;69130;48.724;8.982;2023-05-10T09:40:27;96184.38;;;17.11;66.09
79663;BME280;69130;48.724;8.982;2023-05-10T09:45:27;96180.44;;;19.12;59.72
79663;BME280;69130;48.724;8.982;2023-05-10T09:47:52;96183.16;;;19.20;57.39
79663;BME280;69130;48.724;8.982;2023-05-10T09:50:19;96185.72;;;19.30;55.85
79663;BME280;69130;48.724;8.982;2023-05-10T09:52:52;96181.28;;;18.63;58.17
79663;BME280;69130;48.724;8.982;2023-05-10T09:55:23;96182.88;;;18.48;60.68
79663;BME280;69130;48.724;8.982;2023-05-10T09:57:49;96186.03;;;18.77;58.77
79663;BME280;69130;48.724;8.982;2023-05-10T10:00:23;96182.47;;;18.35;61.10
79663;BME280;69130;48.724;8.982;2023-05-10T10:02:58;96188.75;;;18.25;58.25
79663;BME280;69130;48.724;8.982;2023-05-10T10:05:34;96190.47;;;17.83;62.30
79663;BME280;69130;48.724;8.982;2023-05-10T10:08:03;96194.38;;;17.71;61.57
79663;BME280;69130;48.724;8.982;2023-05-10T10:10:29;96199.03;;;18.38;60.17
79663;BME280;69130;48.724;8.982;2023-05-10T10:12:55;96195.53;;;18.63;58.50
79663;BME280;69130;48.724;8.982;2023-05-10T10:15:22;96191.59;;;18.24;60.38
79663;BME280;69130;48.724;8.982;2023-05-10T10:17:48;96198.00;;;18.57;57.66
79663;BME280;69130;48.724;8.982;2023-05-10T10:20:15;96188.25;;;18.48;59.51
79663;BME280;69130;48.724;8.982;2023-05-10T10:22:40;96188.19;;;19.15;57.29
79663;BME280;69130;48.724;8.982;2023-05-10T10:25:07;96190.16;;;19.71;53.80
79663;BME280;69130;48.724;8.982;2023-05-10T10:35:35;96200.28;;;18.44;58.99
79663;BME280;69130;48.724;8.982;2023-05-10T10:38:01;96205.75;;;17.20;63.50
79663;BME280;69130;48.724;8.982;2023-05-10T10:40:31;96206.59;;;16.67;63.06
79663;BME280;69130;48.724;8.982;2023-05-10T10:43:21;96213.78;;;16.20;65.20
79663;BME280;69130;48.724;8.982;2023-05-10T10:46:16;96214.69;;;15.92;63.95
79663;BME280;69130;48.724;8.982;2023-05-10T10:48:49;96211.06;;;15.64;65.22
79663;BME280;69130;48.724;8.982;2023-05-10T10:51:17;96215.25;;;15.47;63.92
79663;BME280;69130;48.724;8.982;2023-05-10T10:53:43;96219.75;;;14.78;64.82
79663;BME280;69130;48.724;8.982;2023-05-10T10:56:10;96216.84;;;14.21;70.46
79663;BME280;69130;48.724;8.982;2023-05-10T10:58:37;96225.28;;;14.26;70.49
79663;BME280;69130;48.724;8.982;2023-05-10T11:03:38;96221.16;;;14.13;71.49
79663;BME280;69130;48.724;8.982;2023-05-10T11:06:03;96215.19;;;13.99;76.00
79663;BME280;69130;48.724;8.982;2023-05-10T11:08:31;96217.81;;;14.20;75.90
79663;BME280;69130;48.724;8.982;2023-05-10T11:15:56;96207.88;;;14.43;73.19
79663;BME280;69130;48.724;8.982;2023-05-10T11:18:31;96218.59;;;14.62;72.44
79663;BME280;69130;48.724;8.982;2023-05-10T11:21:00;96213.88;;;14.75;71.78
79663;BME280;69130;48.724;8.982;2023-05-10T11:23:49;96222.97;;;14.72;72.13
79663;BME280;69130;48.724;8.982;2023-05-10T11:26:15;96219.06;;;14.76;73.21
79663;BME280;69130;48.724;8.982;2023-05-10T11:28:44;96221.75;;;14.96;72.68
79663;BME280;69130;48.724;8.982;2023-05-10T11:31:10;96213.16;;;14.73;72.09
79663;BME280;69130;48.724;8.982;2023-05-10T11:33:51;96213.72;;;14.76;73.83
79663;BME280;69130;48.724;8.982;2023-05-10T11:36:20;96212.56;;;15.28;73.51
79663;BME280;69130;48.724;8.982;2023-05-10T11:38:47;96215.00;;;15.50;71.73
79663;BME280;69130;48.724;8.982;2023-05-10T11:41:13;96223.97;;;15.59;69.18
79663;BME280;69130;48.724;8.982;2023-05-10T11:43:39;96220.56;;;15.95;68.08
79663;BME280;69130;48.724;8.982;2023-05-10T11:46:07;96230.06;;;16.17;67.39
79663;BME280;69130;48.724;8.982;2023-05-10T11:48:33;96235.00;;;16.21;64.93
79663;BME280;69130;48.724;8.982;2023-05-10T11:50:58;96232.41;;;16.39;68.31
79663;BME280;69130;48.724;8.982;2023-05-10T11:53:26;96232.75;;;16.73;61.93
79663;BME280;69130;48.724;8.982;2023-05-10T11:55:52;96238.72;;;16.84;63.38
79663;BME280;69130;48.724;8.982;2023-05-10T11:58:18;96234.72;;;16.98;64.47
79663;BME280;69130;48.724;8.982;2023-05-10T12:00:44;96239.25;;;16.88;64.13
79663;BME280;69130;48.724;8.982;2023-05-10T12:03:10;96240.69;;;16.55;67.09
79663;BME280;69130;48.724;8.982;2023-05-10T12:05:36;96237.22;;;16.72;63.83
79663;BME280;69130;48.724;8.982;2023-05-10T12:08:15;96239.25;;;16.88;65.31
79663;BME280;69130;48.724;8.982;2023-05-10T12:10:41;96240.25;;;17.14;61.79
79663;BME280;69130;48.724;8.982;2023-05-10T12:13:13;96239.94;;;17.17;61.62
79663;BME280;69130;48.724;8.982;2023-05-10T12:15:39;96245.03;;;17.37;63.67
79663;BME280;69130;48.724;8.982;2023-05-10T12:18:05;96235.34;;;17.54;60.38
79663;BME280;69130;48.724;8.982;2023-05-10T12:20:30;96234.56;;;16.99;61.86
79663;BME280;69130;48.724;8.982;2023-05-10T12:22:57;96240.50;;;16.93;62.46
79663;BME280;69130;48.724;8.982;2023-05-10T12:25:29;96242.84;;;16.23;65.91
79663;BME280;69130;48.724;8.982;2023-05-10T12:27:59;96244.31;;;16.08;64.61
79663;BME280;69130;48.724;8.982;2023-05-10T12:30:31;96240.22;;;16.04;67.45
79663;BME280;69130;48.724;8.982;2023-05-10T12:33:23;96246.72;;;15.82;65.80
79663;BME280;69130;48.724;8.982;2023-05-10T12:35:53;96245.88;;;15.72;65.60
79663;BME280;69130;48.724;8.982;2023-05-10T12:38:32;96243.75;;;15.76;64.20
79663;BME280;69130;48.724;8.982;2023-05-10T12:40:59;96248.09;;;15.96;64.73
79663;BME280;69130;48.724;8.982;2023-05-10T12:43:24;96248.69;;;15.90;65.58
79663;BME280;69130;48.724;8.982;2023-05-10T12:45:50;96241.63;;;15.89;63.40
79663;BME280;69130;48.724;8.982;2023-05-10T12:48:15;96240.66;;;15.90;65.57
79663;BME280;69130;48.724;8.982;2023-05-10T12:50:41;96247.03;;;16.35;64.61
79663;BME280;69130;48.724;8.982;2023-05-10T12:53:06;96237.31;;;16.43;61.76
79663;BME280;69130;48.724;8.982;2023-05-10T12:55:32;96232.75;;;16.73;59.92
79663;BME280;69130;48.724;8.982;2023-05-10T12:57:58;96241.06;;;16.60;61.42
79663;BME280;69130;48.724;8.982;2023-05-10T13:00:23;96242.00;;;16.78;63.74
79663;BME280;69130;48.724;8.982;2023-05-10T13:02:49;96235.84;;;16.95;61.67
79663;BME280;69130;48.724;8.982;2023-05-10T13:05:17;96234.69;;;17.25;60.93
79663;BME280;69130;48.724;8.982;2023-05-10T13:07:43;96236.63;;;17.05;59.57
79663;BME280;69130;48.724;8.982;2023-05-10T13:10:09;96231.56;;;16.75;62.19
79663;BME280;69130;48.724;8.982;2023-05-10T13:12:34;96244.44;;;16.99;59.96
79663;BME280;69130;48.724;8.982;2023-05-10T13:15:00;96241.59;;;16.73;63.94
79663;BME280;69130;48.724;8.982;2023-05-10T13:17:26;96238.69;;;16.94;60.70
79663;BME280;69130;48.724;8.982;2023-05-10T13:19:51;96242.94;;;16.87;63.66
79663;BME280;69130;48.724;8.982;2023-05-10T13:22:16;96239.22;;;16.70;60.85
79663;BME280;69130;48.724;8.982;2023-05-10T13:24:42;96246.16;;;16.63;60.81
79663;BME280;69130;48.724;8.982;2023-05-10T13:27:07;96234.78;;;16.51;62.09